Time;durP1;ratioP1;P1;durP2;ratioP2;P2;SDS_P1;SDS_P2;PMS_P1;PMS_P2;Temp;Humidity;BMP_temperature;BMP_pressure;BME280_temperature;BME280_humidity;BME280_pressure;Samples;Min_cycle;Max_cycle;Signal;HPM_P1;HPM_P2
2021/01/20 00:00:06;;;;;;;34.60;19.63;;;12.30;65.90;;;;;;4980331;28;20042;-61
2021/01/20 00:02:32;;;;;;;40.00;19.63;;;12.30;65.90;;;;;;4981706;28;20287;-60
2021/01/20 00:04:58;;;;;;;38.08;21.25;;;12.30;66.50;;;;;;4984842;28;20045;-60
2021/01/20 00:07:24;;;;;;;35.85;19.70;;;12.20;65.70;;;;;;4983610;28;20495;-60
2021/01/20 00:09:49;;;;;;;34.05;19.92;;;12.20;65.70;;;;;;4978412;28;20084;-60
2021/01/20 00:12:15;;;;;;;32.50;17.17;;;12.20;65.70;;;;;;4980551;28;20034;-61
2021/01/20 00:14:40;;;;;;;43.20;21.58;;;12.20;65.70;;;;;;4979016;28;20064;-60
2021/01/20 00:17:06;;;;;;;36.17;19.63;;;12.20;65.70;;;;;;4980813;28;20033;-60
2021/01/20 00:19:32;;;;;;;35.50;20.85;;;12.10;65.60;;;;;;4982988;28;20042;-60
2021/01/20 00:21:57;;;;;;;40.20;20.27;;;12.10;65.60;;;;;;4982793;28;21932;-60
2021/01/20 00:24:23;;;;;;;38.33;20.45;;;12.10;65.60;;;;;;4988307;28;20491;-61
2021/01/20 00:26:51;;;;;;;37.13;20.48;;;12.10;65.50;;;;;;4988034;28;20391;-61
2021/01/20 00:29:16;;;;;;;32.50;19.10;;;12.10;65.50;;;;;;4986643;28;20038;-60
2021/01/20 00:31:42;;;;;;;35.03;19.67;;;12.10;65.50;;;;;;4976190;28;20683;-61
2021/01/20 00:34:10;;;;;;;35.08;18.83;;;12.00;65.30;;;;;;4980838;28;20031;-60
2021/01/20 00:36:35;;;;;;;31.65;18.45;;;12.00;65.30;;;;;;4980869;28;20070;-62
2021/01/20 00:39:01;;;;;;;30.20;17.15;;;12.00;65.50;;;;;;4984242;28;20124;-61
2021/01/20 00:41:27;;;;;;;35.92;19.02;;;;;;;;;;4975560;28;20034;-60
2021/01/20 00:43:53;;;;;;;32.95;18.77;;;;;;;;;;4974027;28;20485;-61
2021/01/20 00:46:19;;;;;;;31.70;18.52;;;;;;;;;;4979528;28;20560;-60
2021/01/20 00:48:46;;;;;;;33.63;18.60;;;;;;;;;;4982550;28;20048;-61
2021/01/20 00:51:13;;;;;;;34.22;19.63;;;;;;;;;;4979672;28;20107;-61
2021/01/20 00:53:39;;;;;;;30.50;18.20;;;;;;;;;;4982721;28;20049;-60
2021/01/20 00:56:06;;;;;;;36.40;18.90;;;;;;;;;;4981520;28;20064;-60
2021/01/20 00:58:32;;;;;;;30.35;17.23;;;;;;;;;;4983144;28;20267;-60
2021/01/20 01:00:58;;;;;;;35.95;18.85;;;;;;;;;;4981966;28;20042;-61
2021/01/20 01:03:24;;;;;;;36.05;18.67;;;;;;;;;;4964999;28;20573;-60
2021/01/20 01:05:50;;;;;;;33.08;18.05;;;;;;;;;;4978677;28;20057;-61
2021/01/20 01:08:16;;;;;;;35.00;19.33;;;;;;;;;;4976955;28;20047;-61
2021/01/20 01:10:42;;;;;;;30.92;17.83;;;;;;;;;;4969219;28;20042;-60
2021/01/20 01:13:08;;;;;;;35.53;19.45;;;;;;;;;;4976061;28;20046;-60
2021/01/20 01:15:34;;;;;;;34.92;17.20;;;;;;;;;;4975962;28;20450;-61
2021/01/20 01:18:00;;;;;;;31.52;18.30;;;;;;;;;;4976697;28;20045;-60
2021/01/20 01:20:26;;;;;;;31.58;18.35;;;;;;;;;;4978721;28;20500;-61
2021/01/20 01:22:52;;;;;;;37.47;19.48;;;;;;;;;;4979624;28;22714;-60
2021/01/20 01:25:17;;;;;;;33.45;19.05;;;12.00;65.20;;;;;;4976552;28;20124;-60
2021/01/20 01:27:43;;;;;;;29.33;18.08;;;11.80;64.40;;;;;;4982217;28;20060;-60
2021/01/20 01:30:10;;;;;;;30.67;18.85;;;11.80;64.00;;;;;;4987266;28;20042;-61
2021/01/20 01:32:35;;;;;;;28.05;17.52;;;11.80;64.40;;;;;;4975521;28;20072;-61
2021/01/20 01:35:01;;;;;;;29.98;16.45;;;11.80;64.40;;;;;;4976422;28;20050;-60
2021/01/20 01:37:27;;;;;;;30.40;17.42;;;11.80;64.30;;;;;;4975618;28;20506;-60
2021/01/20 01:39:52;;;;;;;30.10;16.75;;;11.80;64.30;;;;;;4981053;28;20038;-60
2021/01/20 01:42:26;;;;;;;32.80;17.35;;;11.80;64.30;;;;;;4975879;28;20034;-60
2021/01/20 01:44:52;;;;;;;33.22;17.00;;;11.80;64.20;;;;;;4978869;28;20073;-61
2021/01/20 01:47:17;;;;;;;26.70;16.48;;;11.70;64.10;;;;;;4977717;28;20033;-60
2021/01/20 01:49:44;;;;;;;33.28;16.02;;;11.70;64.20;;;;;;4982909;28;20491;-61
2021/01/20 01:52:09;;;;;;;29.13;16.90;;;11.70;64.10;;;;;;4982310;28;20052;-61
2021/01/20 01:54:35;;;;;;;32.95;17.80;;;11.70;64.10;;;;;;4974175;28;20038;-60
2021/01/20 01:57:01;;;;;;;24.35;15.52;;;11.70;64.00;;;;;;4975590;28;20045;-60
2021/01/20 01:59:29;;;;;;;27.65;15.63;;;11.70;64.10;;;;;;4976720;28;20089;-61
2021/01/20 02:01:55;;;;;;;29.05;15.15;;;11.70;64.00;;;;;;4978143;28;20045;-61
2021/01/20 02:04:21;;;;;;;32.70;15.27;;;11.70;64.00;;;;;;4974353;28;20340;-60
2021/01/20 02:06:54;;;;;;;31.63;15.65;;;11.70;64.00;;;;;;4977107;28;20046;-60
2021/01/20 02:09:20;;;;;;;25.50;15.60;;;11.70;64.00;;;;;;4976398;28;20092;-60
2021/01/20 02:12:04;;;;;;;28.33;16.08;;;11.60;63.90;;;;;;4982625;28;20034;-60
2021/01/20 02:14:41;;;;;;;30.98;15.77;;;11.60;63.90;;;;;;4982505;28;20486;-60
2021/01/20 02:17:19;;;;;;;29.02;14.93;;;11.60;64.70;;;;;;4981531;28;20555;-60
2021/01/20 02:19:48;;;;;;;24.80;15.00;;;11.60;63.90;;;;;;4983839;28;20514;-61
2021/01/20 02:22:41;;;;;;;29.27;13.95;;;11.60;63.90;;;;;;4980777;28;20045;-60
2021/01/20 02:25:31;;;;;;;23.30;13.73;;;11.60;64.00;;;;;;4980038;28;20046;-60
2021/01/20 02:28:19;;;;;;;27.10;14.27;;;11.60;63.90;;;;;;4979914;28;20030;-60
2021/01/20 02:30:45;;;;;;;23.92;13.93;;;11.60;63.90;;;;;;4983674;28;20120;-61
2021/01/20 02:33:15;;;;;;;24.88;14.93;;;11.60;63.90;;;;;;4980867;28;20112;-61
2021/01/20 02:35:41;;;;;;;28.73;14.57;;;11.60;63.90;;;;;;4988536;28;20034;-61
2021/01/20 02:38:08;;;;;;;29.92;14.15;;;11.60;63.90;;;;;;4983317;28;20030;-60
2021/01/20 02:40:34;;;;;;;24.13;12.93;;;11.60;64.60;;;;;;4981247;28;20121;-60
2021/01/20 02:43:00;;;;;;;28.38;15.32;;;11.60;63.90;;;;;;4975436;28;20042;-61
2021/01/20 02:45:26;;;;;;;28.00;14.60;;;11.60;63.80;;;;;;4984957;28;20030;-61
2021/01/20 02:47:53;;;;;;;36.80;15.85;;;11.60;63.90;;;;;;4984240;28;20044;-61
2021/01/20 02:50:20;;;;;;;27.23;14.55;;;11.50;63.90;;;;;;4973366;28;20041;-60
2021/01/20 02:52:54;;;;;;;23.27;14.80;;;11.50;63.90;;;;;;4985131;28;20034;-61
2021/01/20 02:55:22;;;;;;;26.05;13.10;;;11.50;63.90;;;;;;4980239;28;20053;-60
2021/01/20 02:57:55;;;;;;;31.65;15.98;;;11.50;64.00;;;;;;4985399;28;20084;-61
2021/01/20 03:00:24;;;;;;;26.45;14.70;;;11.50;64.00;;;;;;4986625;28;20785;-61
2021/01/20 03:02:51;;;;;;;26.77;13.85;;;11.50;64.70;;;;;;4986080;28;20116;-61
2021/01/20 03:05:18;;;;;;;24.45;14.68;;;11.50;64.00;;;;;;4990413;28;20041;-60
2021/01/20 03:07:44;;;;;;;22.42;14.18;;;11.50;64.00;;;;;;4984312;28;20040;-60
2021/01/20 03:10:13;;;;;;;25.70;13.55;;;11.50;64.00;;;;;;4979615;28;20034;-60
2021/01/20 03:12:39;;;;;;;23.67;13.55;;;11.50;64.20;;;;;;4978859;28;20084;-61
2021/01/20 03:15:26;;;;;;;27.95;13.57;;;11.50;64.00;;;;;;4979723;28;20041;-60
2021/01/20 03:17:52;;;;;;;25.88;13.50;;;11.50;64.00;;;;;;4979272;28;20088;-61
2021/01/20 03:20:17;;;;;;;23.65;12.93;;;11.50;63.90;;;;;;4982875;28;20117;-61
2021/01/20 03:22:43;;;;;;;26.17;13.88;;;11.50;63.90;;;;;;4978740;28;20439;-60
2021/01/20 03:25:09;;;;;;;27.20;12.75;;;11.40;63.90;;;;;;4982107;28;20046;-61
2021/01/20 03:27:35;;;;;;;20.75;11.80;;;11.50;63.90;;;;;;4981522;28;20526;-61
2021/01/20 03:30:01;;;;;;;19.60;11.45;;;11.40;63.80;;;;;;4985647;28;20041;-61
2021/01/20 03:32:26;;;;;;;21.85;11.85;;;11.40;63.80;;;;;;4982631;28;21369;-60
2021/01/20 03:34:52;;;;;;;18.23;11.63;;;11.50;64.50;;;;;;4974049;28;20029;-61
2021/01/20 03:37:17;;;;;;;21.60;11.90;;;11.50;63.80;;;;;;4979393;28;20026;-61
2021/01/20 03:39:43;;;;;;;27.58;11.93;;;11.40;63.70;;;;;;4982444;28;20125;-61
2021/01/20 03:42:09;;;;;;;20.83;11.25;;;11.40;63.60;;;;;;4978320;28;20022;-61
2021/01/20 03:44:35;;;;;;;24.48;12.30;;;11.50;63.60;;;;;;4984744;28;20944;-60
2021/01/20 03:47:00;;;;;;;20.52;11.02;;;11.50;63.60;;;;;;4985698;28;20092;-61
2021/01/20 03:49:26;;;;;;;18.17;10.63;;;11.50;63.50;;;;;;4985571;28;20066;-61
2021/01/20 03:51:52;;;;;;;16.60;11.05;;;11.50;63.50;;;;;;4983409;28;20039;-61
2021/01/20 03:54:18;;;;;;;22.48;11.35;;;11.40;63.40;;;;;;4981421;28;20417;-61
2021/01/20 03:56:43;;;;;;;17.15;10.10;;;11.50;63.40;;;;;;4978865;28;20061;-61
2021/01/20 03:59:09;;;;;;;18.67;11.30;;;11.50;63.50;;;;;;4981736;28;20125;-61
2021/01/20 04:01:35;;;;;;;16.33;10.27;;;11.50;63.40;;;;;;4982601;28;20038;-60
2021/01/20 04:04:01;;;;;;;21.92;11.57;;;11.40;63.40;;;;;;4984138;28;20038;-61
2021/01/20 04:06:27;;;;;;;21.38;10.18;;;11.50;63.30;;;;;;4983344;28;20046;-61
2021/01/20 04:08:52;;;;;;;20.67;11.13;;;11.50;63.40;;;;;;4982588;28;20046;-61
2021/01/20 04:11:19;;;;;;;17.77;10.15;;;11.40;63.20;;;;;;4984564;28;20261;-60
2021/01/20 04:13:45;;;;;;;18.30;10.48;;;11.40;63.10;;;;;;4979690;28;20042;-60
2021/01/20 04:16:11;;;;;;;22.95;10.95;;;11.40;63.80;;;;;;4981645;28;20100;-61
2021/01/20 04:18:37;;;;;;;20.02;9.82;;;11.40;63.20;;;;;;4981632;28;20042;-60
2021/01/20 04:21:05;;;;;;;22.13;9.93;;;11.40;63.10;;;;;;4980244;28;20044;-60
2021/01/20 04:23:31;;;;;;;20.70;9.52;;;11.40;63.10;;;;;;4980891;28;20089;-61
2021/01/20 04:25:56;;;;;;;19.58;9.68;;;11.40;63.10;;;;;;4983661;28;20053;-61
2021/01/20 04:28:22;;;;;;;17.60;9.10;;;11.40;63.20;;;;;;4980012;28;20147;-61
2021/01/20 04:30:47;;;;;;;16.67;9.55;;;11.30;63.10;;;;;;4980591;28;20088;-60
2021/01/20 04:33:13;;;;;;;18.85;8.82;;;11.30;63.20;;;;;;4980487;28;20061;-60
2021/01/20 04:35:39;;;;;;;17.30;9.00;;;11.30;63.10;;;;;;4981407;28;20179;-61
2021/01/20 04:38:05;;;;;;;17.35;9.07;;;11.30;63.10;;;;;;4986249;28;20041;-61
2021/01/20 04:40:30;;;;;;;15.95;8.73;;;11.30;63.10;;;;;;4979747;28;20605;-61
2021/01/20 04:42:56;;;;;;;14.93;8.73;;;11.30;63.10;;;;;;4975116;28;20039;-61
2021/01/20 04:45:25;;;;;;;16.58;9.50;;;11.30;63.10;;;;;;4980486;28;20053;-61
2021/01/20 04:47:51;;;;;;;17.88;9.13;;;11.30;63.00;;;;;;4979469;28;20060;-61
2021/01/20 04:50:19;;;;;;;22.27;9.00;;;11.30;63.00;;;;;;4979130;28;20072;-60
2021/01/20 04:52:47;;;;;;;15.57;8.65;;;11.30;63.00;;;;;;4977154;28;20125;-60
2021/01/20 04:55:17;;;;;;;13.07;8.15;;;11.30;62.90;;;;;;4976559;28;20554;-60
2021/01/20 04:57:43;;;;;;;15.20;8.85;;;11.30;63.00;;;;;;4982360;28;20786;-60
2021/01/20 05:00:09;;;;;;;14.48;8.38;;;11.30;62.90;;;;;;4977821;28;20053;-60
2021/01/20 05:02:36;;;;;;;19.27;8.63;;;11.40;62.90;;;;;;4975982;28;20557;-61
2021/01/20 05:05:03;;;;;;;18.33;8.80;;;11.30;62.80;;;;;;4978096;28;20137;-61
2021/01/20 05:07:29;;;;;;;16.00;8.52;;;;;;;;;;4978854;28;20053;-61
2021/01/20 05:09:55;;;;;;;20.38;9.27;;;;;;;;;;4976738;28;20109;-61
2021/01/20 05:12:37;;;;;;;19.20;8.98;;;;;;;;;;4976921;28;21600;-61
2021/01/20 05:15:05;;;;;;;15.82;9.35;;;;;;;;;;4978619;28;20482;-60
2021/01/20 05:17:31;;;;;;;20.13;9.93;;;;;;;;;;4979380;28;20373;-61
2021/01/20 05:19:57;;;;;;;16.38;8.55;;;;;;;;;;4979251;28;20499;-60
2021/01/20 05:22:23;;;;;;;16.77;9.40;;;;;;;;;;4977494;28;20042;-61
2021/01/20 05:24:57;;;;;;;19.83;9.60;;;;;;;;;;4979448;28;20046;-61
2021/01/20 05:27:26;;;;;;;20.58;10.05;;;;;;;;;;4974842;28;20048;-61
2021/01/20 05:29:58;;;;;;;18.80;9.80;;;;;;;;;;4974095;28;20069;-61
2021/01/20 05:32:24;;;;;;;17.17;9.60;;;;;;;;;;4971354;28;20064;-60
2021/01/20 05:35:06;;;;;;;21.77;9.73;;;;;;;;;;4975724;28;20042;-60
2021/01/20 05:37:46;;;;;;;21.60;9.43;;;11.30;62.80;;;;;;4976274;28;20149;-61
2021/01/20 05:40:14;;;;;;;21.33;10.57;;;11.30;62.30;;;;;;4980465;28;20621;-60
2021/01/20 05:42:51;;;;;;;19.08;10.23;;;11.30;63.80;;;;;;4974323;28;20072;-60
2021/01/20 05:45:19;;;;;;;16.55;10.02;;;11.30;63.20;;;;;;4977131;28;20045;-61
2021/01/20 05:48:10;;;;;;;23.83;11.20;;;11.20;63.30;;;;;;4978193;28;20034;-61
2021/01/20 05:50:53;;;;;;;19.38;10.77;;;11.20;63.40;;;;;;4981700;28;20128;-61
2021/01/20 05:53:19;;;;;;;18.58;10.73;;;11.20;63.60;;;;;;4975616;28;20459;-60
2021/01/20 05:56:02;;;;;;;21.42;11.25;;;11.10;63.70;;;;;;4973960;28;20030;-60
2021/01/20 05:58:39;;;;;;;22.00;11.70;;;11.10;63.90;;;;;;4981424;28;20061;-61
2021/01/20 06:01:06;;;;;;;20.40;10.77;;;11.20;64.00;;;;;;4982782;28;20034;-61
2021/01/20 06:03:33;;;;;;;25.23;12.02;;;11.20;64.20;;;;;;4981915;28;20520;-60
2021/01/20 06:06:01;;;;;;;23.63;11.60;;;11.10;64.30;;;;;;4983460;28;20049;-60
2021/01/20 06:08:27;;;;;;;23.05;11.52;;;11.10;64.40;;;;;;4982440;28;20431;-60
2021/01/20 06:10:53;;;;;;;21.25;11.95;;;11.10;64.40;;;;;;4980181;28;20133;-60
2021/01/20 06:13:19;;;;;;;22.58;12.43;;;11.20;65.40;;;;;;4985750;28;20042;-59
2021/01/20 06:15:44;;;;;;;21.98;12.15;;;11.20;64.60;;;;;;4986329;28;20100;-60
2021/01/20 06:18:13;;;;;;;21.65;11.50;;;11.20;64.70;;;;;;4989087;28;20203;-60
2021/01/20 06:20:41;;;;;;;20.60;11.50;;;11.20;64.80;;;;;;4988685;28;20403;-60
2021/01/20 06:23:07;;;;;;;21.67;12.00;;;11.20;64.80;;;;;;4984744;28;20030;-61
2021/01/20 06:25:33;;;;;;;19.38;11.57;;;11.30;64.90;;;;;;4984827;28;20100;-61
2021/01/20 06:28:06;;;;;;;18.95;11.48;;;;;;;;;;4984745;28;20192;-62
2021/01/20 06:30:40;;;;;;;19.48;11.07;;;;;;;;;;4988574;28;20510;-60
2021/01/20 06:33:08;;;;;;;16.48;10.25;;;;;;;;;;4991400;28;20041;-64
2021/01/20 06:35:44;;;;;;;17.70;10.57;;;;;;;;;;4982741;28;20491;-62
2021/01/20 06:38:28;;;;;;;21.48;10.90;;;11.30;64.90;;;;;;4991183;28;20455;-61
2021/01/20 06:40:58;;;;;;;20.92;10.10;;;11.40;64.90;;;;;;4981011;28;20121;-64
2021/01/20 06:43:50;;;;;;;14.00;9.65;;;11.40;65.30;;;;;;4983198;28;20039;-64
2021/01/20 06:46:17;;;;;;;16.80;9.07;;;11.50;65.00;;;;;;4982098;28;20048;-64
2021/01/20 06:48:55;;;;;;;15.50;9.57;;;11.50;65.00;;;;;;4986228;28;20172;-60
2021/01/20 06:51:24;;;;;;;15.85;8.95;;;11.50;65.30;;;;;;4978457;28;20222;-60
2021/01/20 06:54:10;;;;;;;17.85;8.77;;;11.50;64.80;;;;;;4970888;28;20133;-60
2021/01/20 06:56:47;;;;;;;15.13;9.18;;;11.60;64.80;;;;;;4983676;28;22938;-60
2021/01/20 06:59:22;;;;;;;17.42;8.60;;;11.60;64.70;;;;;;4984562;28;20491;-60
2021/01/20 07:02:03;;;;;;;17.17;8.10;;;11.60;64.60;;;;;;4982311;28;20046;-60
2021/01/20 07:04:38;;;;;;;10.85;7.45;;;11.60;64.60;;;;;;4986369;28;20049;-60
2021/01/20 07:07:11;;;;;;;13.82;7.45;;;11.60;64.40;;;;;;4987686;28;20042;-60
2021/01/20 07:09:49;;;;;;;14.05;7.78;;;11.70;64.50;;;;;;4983613;28;20052;-61
2021/01/20 07:12:23;;;;;;;12.93;7.53;;;11.70;64.40;;;;;;4987541;28;20053;-61
2021/01/20 07:14:50;;;;;;;11.40;6.72;;;11.80;64.30;;;;;;4990425;28;20046;-60
2021/01/20 07:17:20;;;;;;;16.08;6.97;;;11.80;64.20;;;;;;4985708;28;20041;-60
2021/01/20 07:19:47;;;;;;;11.70;6.95;;;11.80;64.80;;;;;;4986471;28;20030;-60
2021/01/20 07:22:14;;;;;;;12.15;6.68;;;11.80;64.10;;;;;;4982406;28;20128;-61
2021/01/20 07:24:41;;;;;;;11.20;6.60;;;;;;;;;;4987768;28;20623;-61
2021/01/20 07:27:11;;;;;;;14.57;6.72;;;;;;;;;;4988308;28;20408;-60
2021/01/20 07:29:38;;;;;;;9.23;6.45;;;;;;;;;;4987258;28;20034;-61
2021/01/20 07:32:04;;;;;;;8.90;5.70;;;;;;;;;;4987822;28;20072;-60
2021/01/20 07:34:37;;;;;;;9.02;6.43;;;;;;;;;;4982813;28;20395;-60
2021/01/20 07:37:10;;;;;;;10.63;5.97;;;;;;;;;;4984451;28;20048;-61
2021/01/20 07:39:36;;;;;;;12.02;6.28;;;;;;;;;;4989425;28;20038;-61
2021/01/20 07:42:03;;;;;;;9.98;5.82;;;;;;;;;;4984536;28;20064;-60
2021/01/20 07:44:29;;;;;;;11.20;6.30;;;;;;;;;;4986331;28;20061;-60
2021/01/20 07:46:58;;;;;;;11.40;6.38;;;;;;;;;;4985197;28;20518;-61
2021/01/20 07:49:24;;;;;;;11.77;6.13;;;11.80;63.80;;;;;;4979620;28;20041;-61
2021/01/20 07:52:07;;;;;;;14.25;6.50;;;12.10;63.00;;;;;;4988911;28;20050;-61
2021/01/20 07:54:40;;;;;;;12.30;5.95;;;12.10;63.00;;;;;;4980697;28;20330;-61
2021/01/20 07:57:07;;;;;;;9.40;5.60;;;12.10;62.90;;;;;;4987701;28;20077;-61
2021/01/20 07:59:33;;;;;;;11.30;5.78;;;12.20;62.90;;;;;;4984566;28;20495;-61
2021/01/20 08:02:12;;;;;;;10.10;5.88;;;12.20;62.80;;;;;;4984598;28;20038;-60
2021/01/20 08:04:39;;;;;;;10.55;6.05;;;12.20;62.70;;;;;;4980644;28;20037;-61
2021/01/20 08:07:05;;;;;;;9.20;6.07;;;12.30;62.60;;;;;;4982581;28;20084;-61
2021/01/20 08:09:49;;;;;;;9.52;5.95;;;12.30;62.50;;;;;;4982259;28;20069;-61
2021/01/20 08:12:17;;;;;;;10.27;5.15;;;12.30;62.50;;;;;;4989123;28;20424;-61
2021/01/20 08:14:44;;;;;;;11.48;6.13;;;12.30;62.30;;;;;;4988116;28;20052;-61
2021/01/20 08:17:11;;;;;;;8.60;5.43;;;12.40;62.20;;;;;;4987579;28;20050;-61
2021/01/20 08:19:38;;;;;;;9.80;4.75;;;12.40;62.10;;;;;;4983276;28;20054;-61
2021/01/20 08:22:06;;;;;;;7.43;5.15;;;12.40;62.00;;;;;;4983924;28;20552;-61
2021/01/20 08:24:33;;;;;;;8.88;5.22;;;12.40;61.80;;;;;;4985608;28;20567;-61
2021/01/20 08:27:00;;;;;;;6.90;4.60;;;12.50;61.80;;;;;;4985570;28;20060;-61
2021/01/20 08:29:27;;;;;;;13.30;5.43;;;12.50;61.70;;;;;;4980328;28;20048;-61
2021/01/20 08:32:10;;;;;;;9.65;5.13;;;12.50;61.60;;;;;;4978411;28;20037;-61
2021/01/20 08:34:37;;;;;;;8.13;4.82;;;12.60;61.50;;;;;;4980769;28;20778;-61
2021/01/20 08:37:07;;;;;;;9.73;4.50;;;12.60;61.40;;;;;;4984499;28;20653;-61
2021/01/20 08:39:35;;;;;;;7.47;4.63;;;12.60;61.20;;;;;;4985270;28;20093;-61
2021/01/20 08:42:26;;;;;;;8.43;4.80;;;12.60;61.10;;;;;;4973223;28;20041;-61
2021/01/20 08:45:08;;;;;;;9.88;5.57;;;12.70;61.00;;;;;;4978076;28;20138;-61
2021/01/20 08:47:34;;;;;;;7.20;5.05;;;12.70;61.00;;;;;;4987551;28;20049;-61
2021/01/20 08:50:00;;;;;;;6.90;4.28;;;12.70;60.80;;;;;;4986022;28;20316;-61
2021/01/20 08:52:44;;;;;;;8.75;4.60;;;12.70;60.60;;;;;;4984344;28;20029;-61
2021/01/20 08:55:18;;;;;;;12.15;5.07;;;12.70;60.60;;;;;;4985432;28;20511;-61
2021/01/20 08:57:44;;;;;;;8.85;5.00;;;12.70;60.50;;;;;;4980715;28;20050;-61
2021/01/20 09:00:10;;;;;;;8.15;5.07;;;12.80;60.40;;;;;;4990517;28;20411;-61
2021/01/20 09:02:36;;;;;;;6.95;4.70;;;12.80;60.30;;;;;;4986208;28;20137;-60
2021/01/20 09:05:02;;;;;;;8.90;5.13;;;12.80;60.30;;;;;;4986083;28;20073;-61
2021/01/20 09:07:27;;;;;;;11.50;4.95;;;12.80;60.30;;;;;;4980085;28;20132;-61
2021/01/20 09:09:53;;;;;;;6.75;4.78;;;12.80;60.20;;;;;;4985943;28;20507;-61
2021/01/20 09:12:19;;;;;;;7.35;4.53;;;12.80;60.20;;;;;;4980508;28;20687;-61
2021/01/20 09:14:45;;;;;;;8.07;4.90;;;12.80;60.00;;;;;;4984538;28;20495;-61
2021/01/20 09:17:11;;;;;;;12.02;5.05;;;12.80;60.00;;;;;;4980808;28;20049;-61
2021/01/20 09:19:36;;;;;;;8.15;4.30;;;12.80;59.90;;;;;;4984198;28;20042;-61
2021/01/20 09:22:02;;;;;;;7.65;4.60;;;12.80;59.90;;;;;;4984901;28;20042;-61
2021/01/20 09:24:29;;;;;;;11.13;4.80;;;12.80;59.80;;;;;;4981672;28;20034;-61
2021/01/20 09:26:55;;;;;;;7.40;4.50;;;12.90;59.80;;;;;;4987226;28;20049;-61
2021/01/20 09:29:27;;;;;;;8.32;4.13;;;12.90;60.30;;;;;;4985316;28;20503;-61
2021/01/20 09:31:53;;;;;;;11.27;4.80;;;12.90;59.70;;;;;;4988545;28;20077;-61
2021/01/20 09:34:19;;;;;;;9.20;4.95;;;;;;;;;;4992268;28;20041;-61
2021/01/20 09:36:45;;;;;;;7.10;4.38;;;;;;;;;;4990592;28;20053;-61
2021/01/20 09:39:11;;;;;;;7.68;4.43;;;;;;;;;;4990654;28;20039;-62
2021/01/20 09:41:37;;;;;;;9.82;4.90;;;;;;;;;;4991954;28;20041;-61
2021/01/20 09:44:03;;;;;;;8.23;4.32;;;;;;;;;;4985560;28;20069;-61
2021/01/20 09:46:29;;;;;;;5.82;4.35;;;;;;;;;;4989037;28;20702;-61
2021/01/20 09:48:55;;;;;;;9.88;5.05;;;12.90;59.50;;;;;;4985690;28;20107;-61
2021/01/20 09:51:21;;;;;;;6.15;4.10;;;13.00;59.10;;;;;;4981910;28;20468;-61
2021/01/20 09:53:46;;;;;;;7.43;3.78;;;13.00;59.70;;;;;;4987640;28;20038;-63
2021/01/20 09:56:12;;;;;;;6.43;4.10;;;13.10;59.10;;;;;;4986025;28;20034;-61
2021/01/20 09:58:45;;;;;;;6.82;4.00;;;;;;;;;;4989957;28;20047;-61
2021/01/20 10:01:11;;;;;;;9.15;5.05;;;;;;;;;;4986907;28;20069;-61
2021/01/20 10:03:37;;;;;;;5.68;3.63;;;13.10;59.00;;;;;;4987589;28;20038;-62
2021/01/20 10:06:03;;;;;;;9.38;4.05;;;13.10;59.00;;;;;;4989771;28;20049;-62
2021/01/20 10:08:28;;;;;;;7.20;3.95;;;13.20;58.80;;;;;;4987401;28;20484;-61
2021/01/20 10:10:54;;;;;;;6.18;3.90;;;13.20;58.70;;;;;;4990054;28;20045;-62
2021/01/20 10:13:22;;;;;;;5.53;3.78;;;13.20;58.60;;;;;;4984900;28;20145;-62
2021/01/20 10:15:47;;;;;;;4.68;3.33;;;13.20;58.60;;;;;;4985322;28;20451;-61
2021/01/20 10:18:13;;;;;;;8.02;4.22;;;13.20;58.70;;;;;;4991773;28;20092;-62
2021/01/20 10:20:39;;;;;;;7.22;3.83;;;13.30;58.80;;;;;;4986594;28;20400;-61
2021/01/20 10:23:08;;;;;;;7.97;3.78;;;13.30;58.60;;;;;;4985012;28;20034;-61
2021/01/20 10:25:36;;;;;;;7.03;4.07;;;13.30;58.50;;;;;;4989285;28;20034;-62
2021/01/20 10:28:01;;;;;;;6.00;3.70;;;13.40;58.50;;;;;;4985270;28;20030;-62
2021/01/20 10:30:27;;;;;;;4.55;3.22;;;13.40;58.40;;;;;;4987746;28;20045;-62
2021/01/20 10:32:54;;;;;;;9.07;4.13;;;13.50;58.30;;;;;;4985139;28;20100;-62
2021/01/20 10:35:20;;;;;;;4.57;3.20;;;13.50;58.20;;;;;;4989935;28;20605;-62
2021/01/20 10:37:49;;;;;;;5.30;3.35;;;13.60;58.10;;;;;;4988321;28;20026;-61
2021/01/20 10:40:15;;;;;;;5.68;3.60;;;13.60;58.10;;;;;;4985939;28;20081;-61
2021/01/20 10:42:42;;;;;;;5.07;3.28;;;13.60;58.10;;;;;;4987692;28;20034;-62
2021/01/20 10:45:08;;;;;;;6.57;3.58;;;13.60;57.80;;;;;;4986784;28;20034;-61
2021/01/20 10:47:35;;;;;;;5.30;3.63;;;13.60;58.00;;;;;;4990099;28;20053;-62
2021/01/20 10:50:03;;;;;;;6.65;3.97;;;13.70;58.00;;;;;;4987657;28;20045;-61
2021/01/20 10:52:29;;;;;;;6.50;3.30;;;13.70;58.20;;;;;;4988016;28;20046;-61
2021/01/20 10:54:55;;;;;;;4.97;3.05;;;13.80;58.20;;;;;;4989437;28;20045;-62
2021/01/20 10:57:21;;;;;;;6.10;3.35;;;13.90;57.90;;;;;;4988263;28;20038;-61
2021/01/20 10:59:47;;;;;;;5.30;3.50;;;13.90;57.90;;;;;;4988868;28;20049;-62
2021/01/20 11:02:12;;;;;;;7.07;3.40;;;13.90;57.90;;;;;;4982134;28;20514;-62
2021/01/20 11:04:41;;;;;;;5.65;3.00;;;13.90;57.90;;;;;;4989615;28;20045;-61
2021/01/20 11:07:07;;;;;;;6.20;3.03;;;14.00;57.90;;;;;;4990885;28;20034;-61
2021/01/20 11:09:33;;;;;;;4.43;3.17;;;14.00;57.90;;;;;;4992498;28;20045;-61
2021/01/20 11:11:59;;;;;;;5.63;3.05;;;14.00;57.70;;;;;;4982571;28;20105;-61
2021/01/20 11:14:26;;;;;;;4.32;2.92;;;14.00;57.70;;;;;;4989220;28;20670;-62
2021/01/20 11:16:55;;;;;;;7.10;3.65;;;14.10;57.70;;;;;;4985370;28;20053;-62
2021/01/20 11:19:20;;;;;;;6.70;3.50;;;14.00;57.50;;;;;;4984761;28;20042;-62
2021/01/20 11:21:46;;;;;;;5.93;3.47;;;14.00;57.70;;;;;;4983766;28;20053;-62
2021/01/20 11:24:12;;;;;;;6.03;3.20;;;14.00;57.90;;;;;;4988458;28;20080;-62
2021/01/20 11:26:37;;;;;;;7.28;3.33;;;14.00;57.90;;;;;;4984158;28;20133;-61
2021/01/20 11:29:03;;;;;;;4.35;2.55;;;14.00;57.90;;;;;;4983999;28;20041;-61
2021/01/20 11:31:30;;;;;;;5.00;2.78;;;14.00;58.00;;;;;;4988829;28;20041;-61
2021/01/20 11:33:56;;;;;;;3.97;3.13;;;14.00;58.00;;;;;;4985873;28;20046;-62
2021/01/20 11:36:22;;;;;;;4.68;3.08;;;14.00;58.00;;;;;;4986465;28;20053;-62
2021/01/20 11:38:48;;;;;;;15.63;4.47;;;14.10;58.00;;;;;;4988091;28;20507;-61
2021/01/20 11:41:13;;;;;;;14.07;4.90;;;14.10;58.10;;;;;;4987986;28;20042;-61
2021/01/20 11:43:39;;;;;;;6.97;3.78;;;14.10;58.20;;;;;;4991793;28;20501;-62
2021/01/20 11:46:06;;;;;;;6.78;2.65;;;14.10;58.10;;;;;;4983370;28;20050;-62
2021/01/20 11:48:31;;;;;;;5.18;2.63;;;14.10;58.10;;;;;;4990268;28;20046;-61
2021/01/20 11:50:57;;;;;;;6.60;3.20;;;14.20;58.10;;;;;;4990270;28;20061;-62
2021/01/20 11:53:23;;;;;;;6.03;3.90;;;14.20;58.00;;;;;;4990270;28;20045;-62
2021/01/20 11:55:49;;;;;;;4.32;3.08;;;14.20;58.00;;;;;;4991939;28;20064;-62
2021/01/20 11:58:14;;;;;;;4.13;2.92;;;14.20;58.20;;;;;;4989841;28;20038;-62
2021/01/20 12:00:40;;;;;;;7.35;3.10;;;14.20;58.10;;;;;;4988508;28;20039;-61
2021/01/20 12:03:05;;;;;;;5.63;2.75;;;14.20;58.00;;;;;;4986136;28;20125;-61
2021/01/20 12:05:31;;;;;;;5.03;2.72;;;14.30;58.00;;;;;;4985135;28;20696;-62
2021/01/20 12:07:57;;;;;;;4.47;2.78;;;14.30;57.80;;;;;;4994133;28;20038;-61
2021/01/20 12:10:22;;;;;;;10.73;3.10;;;14.30;57.70;;;;;;4991217;28;20048;-62
2021/01/20 12:12:48;;;;;;;4.78;2.70;;;14.30;57.70;;;;;;4981518;28;20038;-61
2021/01/20 12:15:14;;;;;;;4.55;2.75;;;14.30;57.80;;;;;;4991103;28;20041;-63
2021/01/20 12:17:40;;;;;;;4.32;2.63;;;14.40;57.80;;;;;;4985270;28;20034;-62
2021/01/20 12:20:07;;;;;;;4.40;2.80;;;14.40;57.60;;;;;;4981171;28;20049;-61
2021/01/20 12:22:33;;;;;;;4.53;2.90;;;14.50;57.60;;;;;;4988444;28;20046;-62
2021/01/20 12:24:59;;;;;;;4.22;2.80;;;14.50;57.40;;;;;;4990381;28;20038;-62
2021/01/20 12:27:25;;;;;;;4.80;2.40;;;14.60;57.20;;;;;;4986225;28;20041;-61
2021/01/20 12:29:50;;;;;;;4.03;2.83;;;14.60;56.90;;;;;;4988483;28;20055;-61
2021/01/20 12:32:16;;;;;;;3.90;2.85;;;14.60;56.90;;;;;;4984292;28;20461;-61
2021/01/20 12:34:42;;;;;;;5.90;3.05;;;14.60;57.00;;;;;;4986866;28;20495;-62
2021/01/20 12:37:07;;;;;;;5.05;2.47;;;14.70;57.00;;;;;;4986039;28;21006;-62
2021/01/20 12:39:33;;;;;;;4.65;2.38;;;14.80;57.00;;;;;;4983602;28;20057;-62
2021/01/20 12:41:58;;;;;;;5.50;2.70;;;14.90;57.10;;;;;;4984879;28;20407;-61
2021/01/20 12:44:24;;;;;;;3.13;2.03;;;15.20;57.20;;;;;;4984811;28;20069;-61
2021/01/20 12:46:50;;;;;;;3.05;1.95;;;15.70;56.80;;;;;;4986906;28;20045;-62
2021/01/20 12:49:15;;;;;;;3.97;2.60;;;16.10;55.40;;;;;;4986657;28;20236;-62
2021/01/20 12:51:41;;;;;;;4.07;2.03;;;16.40;55.20;;;;;;4979724;28;20042;-62
2021/01/20 12:54:07;;;;;;;5.15;2.30;;;16.90;53.90;;;;;;4984012;28;20045;-62
2021/01/20 12:56:33;;;;;;;7.97;2.55;;;17.00;52.90;;;;;;4985449;28;20761;-62